Main page
Satellite images 15-day forecastsClimateMarine weather Cyclones Lightning AirportsFAQ Newsletter About
Weather : Europe Africa North America South America Asia Australia-Oceania Others
Languages Contact

Brussels, Belgium

National

latitude: 50-54N, longitude: 004-32E, elevation: 55 m


METAR: EBBR 011950Z 20005KT 9999 FEW036 17/13 Q1027 NOSIG
TAF: EBBR 011700Z 0118/0224 24004KT 9999 FEW035 PROB30 TEMPO 0203/0206 4500 -DZ SCT008

Time: 22:16 (20:16 UTC)

Current weather observation

The report was made 26 minutes ago, at 19:50 UTC  
Wind 05 kt from the South/Southwest
Temperature 17°C
Humidity 77%
Pressure 1027 hPa
Visibility 10 km or more
Few clouds at a height of 3600 ft

Change units

Forecast

The report was made 03 hours and 16 minutes ago, at 17:00 UTC  
Forecast valid from 01 at 18 UTC to 02 at 24 UTC
Wind 04 kt from the West/Southwest
Visibility 10 km or more
Few clouds at a height of 3500 ft
Probability 30% :
Temporary
from 02 at 03 UTC to 02 at 06 UTC
Visibility 4500 m
Scattered clouds at a height of 800 ft
light drizzle
The information on this site is subject to a disclaimer
Weather : Europe Africa North America South America Asia Australia-Oceania Others
Satellite images 15-day forecastsClimateMarine weather Cyclones Lightning AirportsFAQ Languages Contact Newsletter About